Weather at Antalya International Airport

Public forecast

Using degrees Celsius for public forecast. Weather courtesy of forecast.io.

Current aviation weather report (METAR) for Antalya International Airport

Retrieved 2021/05/12 18:20 UTC (11 minutes ago):

LTAI 121820Z 14002KT CAVOK 20/19 Q1010 NOSIG RMK RWY18C VRB01KT RWY36R 00000KT RWY18L 00000KT

Aviation forecast (TAF) for Antalya International Airport

Retrieved 2021/05/12 18:03 UTC (28 minutes ago):

TAF LTAI 121640Z 1218/1318 34005KT CAVOK BECMG 1306/1308 17010KT FEW030 BECMG 1315/1317 11005KT